createdAt,value
2022-12-15T00:02:19.768Z,1.56
2022-12-15T00:05:05.495Z,1.60
2022-12-15T00:07:50.988Z,1.62
2022-12-15T00:10:36.717Z,1.66
2022-12-15T00:13:28.437Z,1.60
2022-12-15T00:16:14.448Z,1.64
2022-12-15T00:18:59.680Z,1.61
2022-12-15T00:21:45.082Z,1.59
2022-12-15T00:24:30.255Z,1.51
2022-12-15T00:27:15.413Z,1.47
2022-12-15T00:30:00.588Z,1.41
2022-12-15T00:32:45.574Z,1.38
2022-12-15T00:35:30.969Z,1.34
2022-12-15T00:38:16.221Z,1.29
2022-12-15T00:40:42.758Z,1.23
2022-12-15T00:43:12.321Z,1.21
2022-12-15T00:45:57.564Z,1.17
2022-12-15T00:48:24.153Z,1.14
2022-12-15T00:50:53.859Z,1.09
2022-12-15T00:53:42.763Z,1.10
2022-12-15T00:56:28.583Z,1.08
2022-12-15T00:59:14.008Z,1.05
2022-12-15T01:01:59.827Z,1.02
2022-12-15T01:04:45.461Z,1.03
2022-12-15T01:07:30.923Z,1.06
2022-12-15T01:10:16.449Z,1.05
2022-12-15T01:13:01.826Z,1.08
2022-12-15T01:15:47.206Z,1.07
2022-12-15T01:18:32.302Z,1.07
2022-12-15T01:21:04.971Z,1.06
2022-12-15T01:23:33.159Z,1.07
2022-12-15T01:26:00.173Z,1.08
2022-12-15T01:28:27.221Z,1.07
2022-12-15T01:30:54.075Z,1.06
2022-12-15T01:33:21.783Z,1.06
2022-12-15T01:36:01.621Z,1.04
2022-12-15T01:38:29.172Z,1.04
2022-12-15T01:41:03.008Z,1.03
2022-12-15T01:43:36.278Z,0.97
2022-12-15T01:46:21.868Z,0.92
2022-12-15T01:48:57.528Z,0.90
2022-12-15T01:51:48.578Z,0.96
2022-12-15T01:54:26.611Z,0.98
2022-12-15T01:56:58.735Z,0.97
2022-12-15T01:59:31.115Z,1.04
2022-12-15T02:01:58.151Z,1.18
2022-12-15T02:04:25.196Z,1.22
2022-12-15T02:06:53.077Z,1.24
2022-12-15T02:09:22.243Z,1.27
2022-12-15T02:12:01.246Z,1.41
2022-12-15T02:14:46.914Z,1.48
2022-12-15T02:17:23.048Z,1.50
2022-12-15T02:20:14.332Z,1.54
2022-12-15T02:23:36.456Z,1.61
2022-12-15T02:26:14.953Z,1.70
2022-12-15T02:29:28.954Z,1.75
2022-12-15T02:32:13.751Z,1.83
2022-12-15T02:35:10.222Z,1.86
2022-12-15T02:37:39.303Z,1.93
2022-12-15T02:40:09.890Z,1.84
2022-12-15T02:42:43.086Z,1.90
2022-12-15T02:45:14.062Z,1.85
2022-12-15T02:48:05.473Z,1.89
2022-12-15T02:51:10.566Z,1.85
2022-12-15T02:53:58.508Z,1.93
2022-12-15T02:56:41.528Z,1.93
2022-12-15T02:59:15.266Z,1.82
2022-12-15T03:01:54.931Z,1.78
2022-12-15T03:04:22.844Z,1.74
2022-12-15T03:07:01.377Z,1.69
2022-12-15T03:09:28.396Z,1.75
2022-12-15T03:11:54.932Z,1.83
2022-12-15T03:14:21.599Z,1.90
2022-12-15T03:16:48.365Z,1.92
2022-12-15T03:19:15.025Z,1.95
2022-12-15T03:21:41.529Z,2.07
2022-12-15T03:24:08.271Z,2.01
2022-12-15T03:26:35.076Z,2.04
2022-12-15T03:29:01.715Z,2.00
2022-12-15T03:31:28.457Z,1.91
2022-12-15T03:33:55.727Z,1.93
2022-12-15T03:36:25.071Z,1.90
2022-12-15T03:38:51.631Z,1.87
2022-12-15T03:41:19.351Z,1.94
2022-12-15T03:43:46.511Z,1.94
2022-12-15T03:46:16.719Z,1.82
2022-12-15T03:48:43.499Z,1.83
2022-12-15T03:51:10.581Z,1.86
2022-12-15T03:53:37.244Z,1.93
2022-12-15T03:56:03.924Z,1.89
2022-12-15T03:58:30.624Z,1.99
2022-12-15T04:00:57.405Z,2.05
2022-12-15T04:03:24.206Z,2.07
2022-12-15T04:05:50.948Z,2.10
2022-12-15T04:08:17.780Z,2.04
2022-12-15T04:10:44.423Z,2.02
2022-12-15T04:13:11.878Z,2.15
2022-12-15T04:15:39.531Z,2.16
2022-12-15T04:18:09.841Z,2.23
2022-12-15T04:20:38.283Z,2.23
2022-12-15T04:23:08.064Z,2.20
2022-12-15T04:25:55.525Z,2.26
2022-12-15T04:28:41.052Z,2.22
2022-12-15T04:31:27.813Z,2.28
2022-12-15T04:34:16.775Z,2.31
2022-12-15T04:37:04.273Z,2.35
2022-12-15T04:39:49.632Z,2.37
2022-12-15T04:42:34.874Z,2.41
2022-12-15T04:45:23.010Z,2.47
2022-12-15T04:48:07.989Z,2.55
2022-12-15T04:50:54.087Z,2.51
2022-12-15T04:53:39.997Z,2.61
2022-12-15T04:56:30.373Z,2.63
2022-12-15T04:59:16.180Z,2.68
2022-12-15T05:02:01.884Z,2.72
2022-12-15T05:04:47.618Z,2.73
2022-12-15T05:07:32.969Z,2.79
2022-12-15T05:10:18.213Z,2.77
2022-12-15T05:13:03.638Z,2.73
2022-12-15T05:15:49.074Z,2.71
2022-12-15T05:18:34.597Z,2.70
2022-12-15T05:21:19.676Z,2.71
2022-12-15T05:24:05.116Z,2.68
2022-12-15T05:26:53.070Z,2.70
2022-12-15T05:29:39.472Z,2.77
2022-12-15T05:32:07.731Z,2.81
2022-12-15T05:34:36.403Z,2.78
2022-12-15T05:37:04.564Z,2.84
2022-12-15T05:39:31.384Z,2.85
2022-12-15T05:41:58.236Z,2.87
2022-12-15T05:44:26.391Z,2.91
2022-12-15T05:46:53.501Z,2.88
2022-12-15T05:49:20.496Z,2.98
2022-12-15T05:51:48.165Z,3.03
2022-12-15T05:54:17.549Z,3.06
2022-12-15T05:56:44.586Z,3.09
2022-12-15T05:59:11.340Z,3.11
2022-12-15T06:01:38.065Z,3.08
2022-12-15T06:04:05.269Z,3.15
2022-12-15T06:06:32.513Z,3.11
2022-12-15T06:08:59.147Z,3.15
2022-12-15T06:11:26.449Z,3.16
2022-12-15T06:13:53.179Z,3.19
2022-12-15T06:16:20.912Z,3.23
2022-12-15T06:18:54.282Z,3.25
2022-12-15T06:21:26.185Z,3.17
2022-12-15T06:23:53.601Z,3.11
2022-12-15T06:26:26.296Z,3.13
2022-12-15T06:28:55.955Z,3.13
2022-12-15T06:31:22.986Z,3.15
2022-12-15T06:33:55.979Z,3.09
2022-12-15T06:36:26.140Z,3.15
2022-12-15T06:38:53.113Z,3.12
2022-12-15T06:41:21.410Z,3.15
2022-12-15T06:43:53.052Z,3.16
2022-12-15T06:46:20.172Z,3.17
2022-12-15T06:48:47.622Z,3.14
2022-12-15T06:51:17.310Z,3.13
2022-12-15T06:53:48.855Z,3.18
2022-12-15T06:56:24.422Z,3.22
2022-12-15T06:58:55.722Z,3.26
2022-12-15T07:01:23.972Z,3.26
2022-12-15T07:03:51.897Z,3.24
2022-12-15T07:06:19.231Z,3.28
2022-12-15T07:08:52.240Z,3.28
2022-12-15T07:11:20.855Z,3.30
2022-12-15T07:13:54.166Z,3.35
2022-12-15T07:16:22.432Z,3.34
2022-12-15T07:18:49.368Z,3.34
2022-12-15T07:21:16.555Z,3.32
2022-12-15T07:24:00.623Z,3.28
2022-12-15T07:26:27.964Z,3.36
2022-12-15T07:28:54.843Z,3.36
2022-12-15T07:31:22.440Z,3.35
2022-12-15T07:33:49.398Z,3.33
2022-12-15T07:36:16.208Z,3.41
2022-12-15T07:38:42.799Z,3.41
2022-12-15T07:41:10.267Z,3.42
2022-12-15T07:43:37.602Z,3.48
2022-12-15T07:46:05.575Z,3.53
2022-12-15T07:48:32.902Z,3.53
2022-12-15T07:51:09.528Z,3.50
2022-12-15T07:53:38.410Z,3.57
2022-12-15T07:56:08.525Z,3.62
2022-12-15T07:58:36.172Z,3.66
2022-12-15T08:01:07.914Z,3.73
2022-12-15T08:03:36.188Z,3.72
2022-12-15T08:06:07.801Z,3.78
2022-12-15T08:08:35.748Z,3.85
2022-12-15T08:11:10.409Z,3.92
2022-12-15T08:16:25.223Z,4.11
2022-12-15T08:18:51.896Z,4.16
2022-12-15T08:21:18.574Z,4.23
2022-12-15T08:23:45.223Z,4.28
2022-12-15T08:26:15.085Z,4.48
2022-12-15T08:28:42.444Z,4.61
2022-12-15T08:31:11.665Z,4.75
2022-12-15T08:33:39.198Z,4.85
2022-12-15T08:36:08.544Z,4.98
2022-12-15T08:38:36.372Z,5.07
2022-12-15T08:41:14.958Z,5.04
2022-12-15T08:43:48.277Z,5.15
2022-12-15T08:46:20.882Z,5.18
2022-12-15T08:48:48.074Z,5.21
2022-12-15T08:51:15.171Z,5.28
2022-12-15T08:53:41.831Z,5.43
2022-12-15T08:56:12.217Z,5.50
2022-12-15T08:58:39.280Z,5.56
2022-12-15T09:01:09.510Z,5.57
2022-12-15T09:03:37.114Z,5.52
2022-12-15T09:06:09.177Z,5.45
2022-12-15T09:08:35.940Z,5.30
2022-12-15T09:11:05.082Z,5.24
2022-12-15T09:13:31.898Z,5.10
2022-12-15T09:16:09.983Z,5.03
2022-12-15T09:18:37.623Z,4.95
2022-12-15T09:21:06.256Z,4.81
2022-12-15T09:23:34.405Z,4.83
2022-12-15T09:26:14.522Z,4.96
2022-12-15T09:28:42.982Z,5.00
2022-12-15T09:31:22.138Z,4.97
2022-12-15T09:33:50.709Z,5.15
2022-12-15T09:36:17.561Z,5.25
2022-12-15T09:38:44.962Z,5.41
2022-12-15T09:41:17.942Z,5.41
2022-12-15T09:43:51.013Z,5.46
2022-12-15T09:46:36.078Z,5.56
2022-12-15T09:49:10.870Z,5.64
2022-12-15T09:51:46.155Z,5.62
2022-12-15T09:54:12.828Z,5.71
2022-12-15T09:56:55.995Z,5.76
2022-12-15T10:00:12.875Z,5.76
2022-12-15T10:03:11.172Z,5.79
2022-12-15T10:08:59.903Z,5.77
2022-12-15T10:11:52.765Z,5.83
2022-12-15T10:14:23.535Z,5.77
2022-12-15T10:17:15.131Z,5.82
2022-12-15T10:19:52.325Z,5.72
2022-12-15T10:22:28.733Z,5.75
2022-12-15T10:25:11.521Z,5.89
2022-12-15T10:27:59.700Z,6.00
2022-12-15T10:30:26.475Z,6.07
2022-12-15T10:33:09.386Z,6.12
2022-12-15T10:35:36.991Z,6.24
2022-12-15T10:38:06.412Z,6.26
2022-12-15T10:40:50.565Z,6.23
2022-12-15T10:43:28.470Z,6.23
2022-12-15T10:46:15.831Z,6.13
2022-12-15T10:48:48.689Z,6.20
2022-12-15T10:51:24.788Z,6.27
2022-12-15T10:54:15.692Z,6.30
2022-12-15T10:56:56.750Z,6.29
2022-12-15T10:59:23.499Z,6.34
2022-12-15T11:01:51.585Z,6.45
2022-12-15T11:04:32.881Z,6.44
2022-12-15T11:07:01.943Z,6.48
2022-12-15T11:09:37.201Z,6.48
2022-12-15T11:12:43.823Z,6.56
2022-12-15T11:15:22.266Z,6.60
2022-12-15T11:18:03.093Z,6.54
2022-12-15T11:20:40.939Z,6.59
2022-12-15T11:23:19.285Z,6.71
2022-12-15T11:25:54.864Z,6.80
2022-12-15T11:28:29.919Z,6.93
2022-12-15T11:31:14.910Z,6.92
2022-12-15T11:33:41.461Z,6.91
2022-12-15T11:36:34.393Z,6.99
2022-12-15T11:39:13.854Z,6.97
2022-12-15T11:42:08.632Z,7.03
2022-12-15T11:45:18.571Z,7.02
2022-12-15T11:48:07.788Z,7.05
2022-12-15T11:50:55.600Z,7.06
2022-12-15T11:53:43.962Z,7.00
2022-12-15T11:56:38.061Z,6.94
2022-12-15T11:59:25.892Z,6.95
2022-12-15T12:02:03.469Z,6.93
2022-12-15T12:04:57.295Z,6.90
2022-12-15T12:07:45.167Z,6.93
2022-12-15T12:10:30.871Z,6.87
2022-12-15T12:13:19.086Z,6.80
2022-12-15T12:15:53.495Z,6.84
2022-12-15T12:18:26.316Z,6.87
2022-12-15T12:21:13.995Z,6.95
2022-12-15T12:23:56.216Z,6.97
2022-12-15T12:26:31.596Z,6.92
2022-12-15T12:29:23.358Z,6.99
2022-12-15T12:31:50.715Z,7.00
2022-12-15T12:34:43.914Z,6.98
2022-12-15T12:38:03.094Z,7.02
2022-12-15T12:40:33.080Z,6.96
2022-12-15T12:43:00.978Z,6.91
2022-12-15T12:46:13.112Z,6.89
2022-12-15T12:48:53.107Z,6.90
2022-12-15T12:51:23.421Z,6.99
2022-12-15T12:53:51.211Z,7.05
2022-12-15T12:56:45.412Z,7.08
2022-12-15T12:59:51.071Z,7.11
2022-12-15T13:02:20.611Z,7.13
2022-12-15T13:05:21.671Z,7.15
2022-12-15T13:08:06.764Z,7.18
2022-12-15T13:10:36.211Z,7.19
2022-12-15T13:13:08.778Z,7.23
2022-12-15T13:15:43.067Z,7.22
2022-12-15T13:18:25.022Z,7.22
2022-12-15T13:20:56.214Z,7.21
2022-12-15T13:23:28.955Z,7.21
2022-12-15T13:25:58.928Z,7.23
2022-12-15T13:28:49.561Z,7.22
2022-12-15T13:31:22.855Z,7.21
2022-12-15T13:33:49.578Z,7.16
2022-12-15T13:36:38.179Z,7.09
2022-12-15T13:39:17.104Z,7.02
2022-12-15T13:44:55.323Z,6.79
2022-12-15T13:47:29.371Z,6.71
2022-12-15T13:50:12.895Z,6.62
2022-12-15T13:53:17.296Z,6.51
2022-12-15T13:55:38.104Z,6.41
2022-12-15T13:58:16.163Z,6.35
2022-12-15T14:00:52.655Z,6.29
2022-12-15T14:03:19.868Z,6.19
2022-12-15T14:05:53.286Z,6.14
2022-12-15T14:08:21.825Z,6.04
2022-12-15T14:10:52.949Z,5.97
2022-12-15T14:13:31.606Z,5.91
2022-12-15T14:16:03.125Z,5.85
2022-12-15T14:18:35.286Z,5.79
2022-12-15T14:21:07.098Z,5.75
2022-12-15T14:24:11.383Z,5.73
2022-12-15T14:26:32.050Z,5.67
2022-12-15T14:29:05.261Z,5.66
2022-12-15T14:31:32.091Z,5.59
2022-12-15T14:34:24.246Z,5.62
2022-12-15T14:36:52.067Z,5.54
2022-12-15T14:39:26.739Z,5.57
2022-12-15T14:41:55.052Z,5.58
2022-12-15T14:44:38.167Z,5.57
2022-12-15T14:47:08.541Z,5.54
2022-12-15T14:49:45.397Z,5.55
2022-12-15T14:52:34.863Z,5.54
2022-12-15T14:55:17.455Z,5.52
2022-12-15T14:57:45.755Z,5.51
2022-12-15T15:03:20.025Z,5.50
2022-12-15T15:05:57.020Z,5.51
2022-12-15T15:08:43.729Z,5.54
2022-12-15T15:11:24.456Z,5.55
2022-12-15T15:13:56.250Z,5.59
2022-12-15T15:16:23.223Z,5.61
2022-12-15T15:18:51.872Z,5.67
2022-12-15T15:21:22.777Z,5.71
2022-12-15T15:24:11.566Z,5.70
2022-12-15T15:26:39.975Z,5.66
2022-12-15T15:29:31.785Z,5.45
2022-12-15T15:32:18.645Z,5.36
2022-12-15T15:34:46.601Z,5.29
2022-12-15T15:37:18.247Z,5.29
2022-12-15T15:39:47.673Z,5.25
2022-12-15T15:42:14.384Z,5.29
2022-12-15T15:44:41.556Z,5.31
2022-12-15T15:47:24.861Z,5.37
2022-12-15T15:49:58.208Z,5.46
2022-12-15T15:52:25.507Z,5.53
2022-12-15T15:54:53.569Z,5.73
2022-12-15T15:57:20.173Z,5.83
2022-12-15T15:59:47.194Z,5.88
2022-12-15T16:02:14.867Z,5.94
2022-12-15T16:04:45.463Z,6.02
2022-12-15T16:07:27.568Z,6.03
2022-12-15T16:09:55.083Z,6.13
2022-12-15T16:12:30.066Z,6.19
2022-12-15T16:14:56.759Z,6.23
2022-12-15T16:17:23.696Z,6.21
2022-12-15T16:19:50.341Z,6.19
2022-12-15T16:22:21.645Z,6.23
2022-12-15T16:24:48.532Z,6.31
2022-12-15T16:27:15.731Z,6.38
2022-12-15T16:29:42.582Z,6.49
2022-12-15T16:32:11.094Z,6.59
2022-12-15T16:34:38.048Z,6.63
2022-12-15T16:37:05.169Z,6.75
2022-12-15T16:42:24.449Z,6.95
2022-12-15T16:44:51.056Z,6.95
2022-12-15T16:47:17.557Z,7.02
2022-12-15T16:49:44.160Z,7.10
2022-12-15T16:52:28.672Z,7.16
2022-12-15T16:54:55.285Z,7.19
2022-12-15T16:57:22.002Z,7.19
2022-12-15T16:59:49.792Z,7.27
2022-12-15T17:02:29.904Z,7.33
2022-12-15T17:04:56.775Z,7.32
2022-12-15T17:07:26.997Z,7.27
2022-12-15T17:09:53.622Z,7.00
2022-12-15T17:12:20.166Z,6.89
2022-12-15T17:14:46.947Z,6.83
2022-12-15T17:17:21.150Z,6.77
2022-12-15T17:20:19.722Z,6.73
2022-12-15T17:22:36.431Z,6.74
2022-12-15T17:25:02.977Z,6.92
2022-12-15T17:27:30.180Z,7.21
2022-12-15T17:29:58.199Z,7.18
2022-12-15T17:32:24.797Z,7.04
2022-12-15T17:34:51.943Z,6.83
2022-12-15T17:37:18.881Z,6.58
2022-12-15T17:39:50.900Z,6.40
2022-12-15T17:42:20.263Z,6.32
2022-12-15T17:44:47.886Z,6.23
2022-12-15T17:47:16.604Z,6.16
2022-12-15T17:49:44.050Z,6.05
2022-12-15T17:52:34.377Z,6.00
2022-12-15T17:55:02.261Z,5.95
2022-12-15T17:57:32.029Z,5.90
2022-12-15T18:00:01.246Z,5.90
2022-12-15T18:02:28.353Z,5.85
2022-12-15T18:04:55.355Z,5.90
2022-12-15T18:07:23.696Z,5.90
2022-12-15T18:09:52.245Z,5.89
2022-12-15T18:12:24.289Z,5.95
2022-12-15T18:14:52.044Z,5.97
2022-12-15T18:17:19.474Z,5.95
2022-12-15T18:19:46.418Z,5.88
2022-12-15T18:22:22.549Z,5.84
2022-12-15T18:24:51.060Z,5.83
2022-12-15T18:27:29.059Z,5.81
2022-12-15T18:29:56.581Z,5.77
2022-12-15T18:32:25.667Z,5.72
2022-12-15T18:34:53.527Z,5.70
2022-12-15T18:37:22.864Z,5.66
2022-12-15T18:39:50.482Z,5.68
2022-12-15T18:42:23.334Z,5.67
2022-12-15T18:44:52.370Z,5.66
2022-12-15T18:47:21.682Z,5.63
2022-12-15T18:49:48.337Z,5.63
2022-12-15T18:52:20.291Z,5.62
2022-12-15T18:54:51.593Z,5.56
2022-12-15T18:57:31.482Z,5.55
2022-12-15T19:00:01.819Z,5.51
2022-12-15T19:02:28.684Z,5.50
2022-12-15T19:04:55.464Z,5.46
2022-12-15T19:07:22.051Z,5.46
2022-12-15T19:09:49.654Z,5.43
2022-12-15T19:12:20.119Z,5.33
2022-12-15T19:14:49.043Z,5.32
2022-12-15T19:17:38.080Z,5.28
2022-12-15T19:20:35.420Z,5.35
2022-12-15T19:23:02.387Z,5.38
2022-12-15T19:25:30.127Z,5.46
2022-12-15T19:28:01.042Z,5.42
2022-12-15T19:30:30.365Z,5.35
2022-12-15T19:32:57.312Z,5.38
2022-12-15T19:35:24.776Z,5.43
2022-12-15T19:37:55.187Z,5.46
2022-12-15T19:40:27.429Z,5.47
2022-12-15T19:42:55.356Z,5.44
2022-12-15T19:45:27.889Z,5.41
2022-12-15T19:47:55.268Z,5.40
2022-12-15T19:50:36.224Z,5.38
2022-12-15T19:53:07.157Z,5.36
2022-12-15T19:55:35.466Z,5.35
2022-12-15T19:58:27.142Z,5.36
2022-12-15T20:00:56.632Z,5.34
2022-12-15T20:03:23.501Z,5.30
2022-12-15T20:05:52.103Z,5.29
2022-12-15T20:08:24.629Z,5.26
2022-12-15T20:10:54.074Z,5.27
2022-12-15T20:13:22.159Z,5.25
2022-12-15T20:15:49.053Z,5.26
2022-12-15T20:18:15.765Z,5.24
2022-12-15T20:20:45.582Z,5.22
2022-12-15T20:23:29.260Z,5.25
2022-12-15T20:25:56.556Z,5.26
2022-12-15T20:28:26.545Z,5.28
2022-12-15T20:30:54.148Z,5.29
2022-12-15T20:33:20.915Z,5.29
2022-12-15T20:35:49.067Z,5.28
2022-12-15T20:38:32.124Z,5.35
2022-12-15T20:41:00.353Z,5.40
2022-12-15T20:43:31.510Z,5.40
2022-12-15T20:46:06.270Z,5.47
2022-12-15T20:48:36.558Z,5.47
2022-12-15T20:51:08.836Z,5.48
2022-12-15T20:53:36.147Z,5.48
2022-12-15T20:56:02.836Z,5.40
2022-12-15T20:58:33.099Z,5.43
2022-12-15T21:01:00.565Z,5.31
2022-12-15T21:03:34.096Z,5.37
2022-12-15T21:06:00.933Z,5.35
2022-12-15T21:08:30.680Z,5.36
2022-12-15T21:11:18.576Z,5.34
2022-12-15T21:13:47.052Z,5.31
2022-12-15T21:16:16.067Z,5.30
2022-12-15T21:19:19.113Z,5.27
2022-12-15T21:21:38.791Z,5.24
2022-12-15T21:24:15.860Z,5.20
2022-12-15T21:26:43.400Z,5.21
2022-12-15T21:29:16.248Z,5.20
2022-12-15T21:31:43.350Z,5.18
2022-12-15T21:34:09.937Z,5.12
2022-12-15T21:36:37.843Z,5.13
2022-12-15T21:39:06.769Z,5.11
2022-12-15T21:41:34.226Z,5.10
2022-12-15T21:44:00.825Z,5.12
2022-12-15T21:46:28.690Z,5.12
2022-12-15T21:49:14.961Z,5.09
2022-12-15T21:51:55.121Z,5.12
2022-12-15T21:56:55.169Z,5.14
2022-12-15T21:59:24.420Z,5.13
2022-12-15T22:01:51.176Z,5.13
2022-12-15T22:04:25.283Z,5.14
2022-12-15T22:06:51.884Z,5.15
2022-12-15T22:09:19.601Z,5.19
2022-12-15T22:11:49.399Z,5.21
2022-12-15T22:14:29.839Z,5.26
2022-12-15T22:16:58.670Z,5.29
2022-12-15T22:19:25.379Z,5.30
2022-12-15T22:21:52.406Z,5.34
2022-12-15T22:24:19.837Z,5.37
2022-12-15T22:26:47.594Z,5.36
2022-12-15T22:29:24.055Z,5.31
2022-12-15T22:31:51.742Z,5.30
2022-12-15T22:34:23.994Z,5.33
2022-12-15T22:36:52.012Z,5.31
2022-12-15T22:39:19.145Z,5.34
2022-12-15T22:41:48.857Z,5.31
2022-12-15T22:44:21.280Z,5.35
2022-12-15T22:46:49.822Z,5.36
2022-12-15T22:49:23.270Z,5.30
2022-12-15T22:51:49.821Z,5.28
2022-12-15T22:54:18.019Z,5.31
2022-12-15T22:56:46.992Z,5.31
2022-12-15T22:59:20.098Z,5.34
2022-12-15T23:01:46.852Z,5.35
2022-12-15T23:04:14.348Z,5.38
2022-12-15T23:06:41.096Z,5.32
2022-12-15T23:09:07.869Z,5.33
2022-12-15T23:11:37.383Z,5.32
2022-12-15T23:14:10.058Z,5.35
2022-12-15T23:16:37.583Z,5.38
2022-12-15T23:19:05.047Z,5.35
2022-12-15T23:21:32.398Z,5.40
2022-12-15T23:23:59.188Z,5.40
2022-12-15T23:26:26.648Z,5.40
2022-12-15T23:28:55.071Z,5.47
2022-12-15T23:31:22.060Z,5.47
2022-12-15T23:33:49.912Z,5.48
2022-12-15T23:36:18.921Z,5.52
2022-12-15T23:38:45.590Z,5.53
2022-12-15T23:41:16.609Z,5.54
2022-12-15T23:43:43.702Z,5.53
2022-12-15T23:46:10.417Z,5.53
2022-12-15T23:48:39.159Z,5.50
2022-12-15T23:51:14.946Z,5.52
2022-12-15T23:53:42.943Z,5.52
2022-12-15T23:56:23.866Z,5.55
2022-12-15T23:58:58.457Z,5.57
